sensor_id;sensor_type;location;lat;lon;timestamp;pressure;altitude;pressure_sealevel;temperature;humidity
42591;BME280;28218;53.342;-6.216;2022-12-07T00:01:30;102675.38;;;5.79;100.00
42591;BME280;28218;53.342;-6.216;2022-12-07T00:04:02;102678.03;;;5.77;100.00
42591;BME280;28218;53.342;-6.216;2022-12-07T00:06:32;102672.91;;;5.76;100.00
42591;BME280;28218;53.342;-6.216;2022-12-07T00:09:00;102678.25;;;5.74;100.00
42591;BME280;28218;53.342;-6.216;2022-12-07T00:11:29;102670.47;;;5.73;100.00
42591;BME280;28218;53.342;-6.216;2022-12-07T00:13:59;102668.69;;;5.73;100.00
42591;BME280;28218;53.342;-6.216;2022-12-07T00:16:29;102665.16;;;5.74;100.00
42591;BME280;28218;53.342;-6.216;2022-12-07T00:18:59;102678.03;;;5.77;100.00
42591;BME280;28218;53.342;-6.216;2022-12-07T00:21:30;102667.59;;;5.77;100.00
42591;BME280;28218;53.342;-6.216;2022-12-07T00:23:59;102666.75;;;5.77;100.00
42591;BME280;28218;53.342;-6.216;2022-12-07T00:26:29;102673.47;;;5.81;100.00
42591;BME280;28218;53.342;-6.216;2022-12-07T00:28:59;102679.38;;;5.84;100.00
42591;BME280;28218;53.342;-6.216;2022-12-07T00:31:29;102680.13;;;5.86;100.00
42591;BME280;28218;53.342;-6.216;2022-12-07T00:34:01;102672.19;;;5.88;100.00
42591;BME280;28218;53.342;-6.216;2022-12-07T00:36:29;102665.09;;;5.90;100.00
42591;BME280;28218;53.342;-6.216;2022-12-07T00:38:58;102671.16;;;5.90;100.00
42591;BME280;28218;53.342;-6.216;2022-12-07T00:41:27;102669.25;;;5.94;100.00
42591;BME280;28218;53.342;-6.216;2022-12-07T00:43:56;102668.22;;;5.97;100.00
42591;BME280;28218;53.342;-6.216;2022-12-07T00:46:25;102671.50;;;6.00;100.00
42591;BME280;28218;53.342;-6.216;2022-12-07T00:48:53;102664.50;;;6.01;100.00
42591;BME280;28218;53.342;-6.216;2022-12-07T00:51:24;102667.88;;;6.03;100.00
42591;BME280;28218;53.342;-6.216;2022-12-07T00:53:53;102664.31;;;6.04;100.00
42591;BME280;28218;53.342;-6.216;2022-12-07T00:56:22;102666.19;;;6.16;100.00
42591;BME280;28218;53.342;-6.216;2022-12-07T00:58:52;102666.00;;;6.05;100.00
42591;BME280;28218;53.342;-6.216;2022-12-07T01:01:21;102656.38;;;6.05;100.00
42591;BME280;28218;53.342;-6.216;2022-12-07T01:03:49;102662.44;;;6.06;100.00
42591;BME280;28218;53.342;-6.216;2022-12-07T01:06:20;102669.34;;;6.07;100.00
42591;BME280;28218;53.342;-6.216;2022-12-07T01:08:50;102657.03;;;6.09;100.00
42591;BME280;28218;53.342;-6.216;2022-12-07T01:11:20;102663.09;;;6.09;100.00
42591;BME280;28218;53.342;-6.216;2022-12-07T01:13:50;102659.66;;;6.09;100.00
42591;BME280;28218;53.342;-6.216;2022-12-07T01:16:19;102665.06;;;6.06;100.00
42591;BME280;28218;53.342;-6.216;2022-12-07T01:18:48;102656.47;;;6.04;100.00
42591;BME280;28218;53.342;-6.216;2022-12-07T01:21:19;102658.41;;;6.00;100.00
42591;BME280;28218;53.342;-6.216;2022-12-07T01:23:47;102656.63;;;6.01;100.00
42591;BME280;28218;53.342;-6.216;2022-12-07T01:26:19;102657.47;;;6.01;100.00
42591;BME280;28218;53.342;-6.216;2022-12-07T01:28:48;102646.28;;;5.99;100.00
42591;BME280;28218;53.342;-6.216;2022-12-07T01:31:18;102646.28;;;5.99;100.00
42591;BME280;28218;53.342;-6.216;2022-12-07T01:33:50;102647.13;;;6.00;100.00
42591;BME280;28218;53.342;-6.216;2022-12-07T01:36:20;102642.88;;;5.97;100.00
42591;BME280;28218;53.342;-6.216;2022-12-07T01:38:51;102635.91;;;5.98;100.00
42591;BME280;28218;53.342;-6.216;2022-12-07T01:41:21;102640.38;;;5.96;100.00
42591;BME280;28218;53.342;-6.216;2022-12-07T01:44:11;102636.19;;;5.93;100.00
42591;BME280;28218;53.342;-6.216;2022-12-07T01:46:41;102637.94;;;5.93;100.00
42591;BME280;28218;53.342;-6.216;2022-12-07T01:49:13;102638.69;;;5.95;100.00
42591;BME280;28218;53.342;-6.216;2022-12-07T01:51:45;102630.06;;;5.93;100.00
42591;BME280;28218;53.342;-6.216;2022-12-07T01:54:14;102624.06;;;5.90;100.00
42591;BME280;28218;53.342;-6.216;2022-12-07T01:56:50;102632.03;;;5.89;100.00
42591;BME280;28218;53.342;-6.216;2022-12-07T01:59:20;102629.41;;;5.89;100.00
42591;BME280;28218;53.342;-6.216;2022-12-07T02:01:49;102625.19;;;5.86;100.00
42591;BME280;28218;53.342;-6.216;2022-12-07T02:04:18;102627.81;;;5.86;100.00
42591;BME280;28218;53.342;-6.216;2022-12-07T02:06:46;102627.28;;;5.96;100.00
42591;BME280;28218;53.342;-6.216;2022-12-07T02:09:15;102624.56;;;5.97;100.00
42591;BME280;28218;53.342;-6.216;2022-12-07T02:11:43;102617.34;;;5.86;100.00
42591;BME280;28218;53.342;-6.216;2022-12-07T02:14:13;102618.28;;;5.85;100.00
42591;BME280;28218;53.342;-6.216;2022-12-07T02:16:54;102622.56;;;5.86;100.00
42591;BME280;28218;53.342;-6.216;2022-12-07T02:20:09;102624.44;;;5.84;100.00
42591;BME280;28218;53.342;-6.216;2022-12-07T02:23:07;102617.72;;;5.80;100.00
42591;BME280;28218;53.342;-6.216;2022-12-07T02:25:57;102613.22;;;5.82;100.00
42591;BME280;28218;53.342;-6.216;2022-12-07T02:28:33;102610.69;;;5.81;100.00
42591;BME280;28218;53.342;-6.216;2022-12-07T02:31:08;102618.66;;;5.79;100.00
42591;BME280;28218;53.342;-6.216;2022-12-07T02:33:41;102616.88;;;5.80;100.00
42591;BME280;28218;53.342;-6.216;2022-12-07T02:36:15;102618.66;;;5.79;100.00
42591;BME280;28218;53.342;-6.216;2022-12-07T02:38:48;102607.50;;;5.76;100.00
42591;BME280;28218;53.342;-6.216;2022-12-07T02:41:23;102606.84;;;5.72;100.00
42591;BME280;28218;53.342;-6.216;2022-12-07T02:43:54;102610.41;;;5.71;100.00
42591;BME280;28218;53.342;-6.216;2022-12-07T02:46:28;102611.34;;;5.70;100.00
42591;BME280;28218;53.342;-6.216;2022-12-07T02:48:58;102608.72;;;5.70;100.00
42591;BME280;28218;53.342;-6.216;2022-12-07T02:51:29;102609.00;;;5.66;100.00
42591;BME280;28218;53.342;-6.216;2022-12-07T02:53:58;102604.66;;;5.64;100.00
42591;BME280;28218;53.342;-6.216;2022-12-07T02:56:33;102606.38;;;5.66;100.00
42591;BME280;28218;53.342;-6.216;2022-12-07T02:59:13;102606.44;;;5.64;100.00
42591;BME280;28218;53.342;-6.216;2022-12-07T03:01:54;102607.38;;;5.63;100.00
42591;BME280;28218;53.342;-6.216;2022-12-07T03:04:36;102605.72;;;5.62;100.00
42591;BME280;28218;53.342;-6.216;2022-12-07T03:07:14;102602.34;;;5.60;100.00
42591;BME280;28218;53.342;-6.216;2022-12-07T03:09:51;102594.22;;;5.64;100.00
42591;BME280;28218;53.342;-6.216;2022-12-07T03:12:25;102595.34;;;5.60;100.00
42591;BME280;28218;53.342;-6.216;2022-12-07T03:15:01;102597.19;;;5.58;100.00
42591;BME280;28218;53.342;-6.216;2022-12-07T03:17:34;102602.16;;;5.63;100.00
42591;BME280;28218;53.342;-6.216;2022-12-07T03:20:06;102602.16;;;5.63;100.00
42591;BME280;28218;53.342;-6.216;2022-12-07T03:22:37;102596.09;;;5.62;100.00
42591;BME280;28218;53.342;-6.216;2022-12-07T03:25:10;102598.81;;;5.61;100.00
42591;BME280;28218;53.342;-6.216;2022-12-07T03:27:42;102596.19;;;5.61;100.00
42591;BME280;28218;53.342;-6.216;2022-12-07T03:30:15;102603.94;;;5.62;100.00
42591;BME280;28218;53.342;-6.216;2022-12-07T03:32:50;102600.31;;;5.65;100.00
42591;BME280;28218;53.342;-6.216;2022-12-07T03:35:24;102596.75;;;5.66;100.00
42591;BME280;28218;53.342;-6.216;2022-12-07T03:37:56;102596.75;;;5.66;100.00
42591;BME280;28218;53.342;-6.216;2022-12-07T03:40:28;102588.06;;;5.66;100.00
42591;BME280;28218;53.342;-6.216;2022-12-07T03:42:59;102587.22;;;5.65;100.00
42591;BME280;28218;53.342;-6.216;2022-12-07T03:45:32;102592.47;;;5.65;100.00
42591;BME280;28218;53.342;-6.216;2022-12-07T03:48:08;102593.38;;;5.64;100.00
42591;BME280;28218;53.342;-6.216;2022-12-07T03:50:44;102594.50;;;5.60;100.00
42591;BME280;28218;53.342;-6.216;2022-12-07T03:53:18;102591.03;;;5.59;100.00
42591;BME280;28218;53.342;-6.216;2022-12-07T03:55:48;102596.47;;;5.56;100.00
42591;BME280;28218;53.342;-6.216;2022-12-07T03:58:19;102581.59;;;5.57;100.00
42591;BME280;28218;53.342;-6.216;2022-12-07T04:00:50;102587.78;;;5.56;100.00
42591;BME280;28218;53.342;-6.216;2022-12-07T04:03:20;102585.31;;;5.53;100.00
42591;BME280;28218;53.342;-6.216;2022-12-07T04:05:48;102580.09;;;5.53;100.00
42591;BME280;28218;53.342;-6.216;2022-12-07T04:08:16;102581.97;;;5.51;100.00
42591;BME280;28218;53.342;-6.216;2022-12-07T04:10:45;102575.03;;;5.50;100.00
42591;BME280;28218;53.342;-6.216;2022-12-07T04:13:13;102583.66;;;5.52;100.00
42591;BME280;28218;53.342;-6.216;2022-12-07T04:15:42;102578.41;;;5.52;100.00
42591;BME280;28218;53.342;-6.216;2022-12-07T04:18:11;102571.31;;;5.54;100.00
42591;BME280;28218;53.342;-6.216;2022-12-07T04:20:40;102569.63;;;5.53;100.00
42591;BME280;28218;53.342;-6.216;2022-12-07T04:23:08;102567.88;;;5.53;100.00
42591;BME280;28218;53.342;-6.216;2022-12-07T04:25:37;102576.66;;;5.52;100.00
42591;BME280;28218;53.342;-6.216;2022-12-07T04:28:05;102568.81;;;5.52;100.00
42591;BME280;28218;53.342;-6.216;2022-12-07T04:30:33;102565.41;;;5.50;100.00
42591;BME280;28218;53.342;-6.216;2022-12-07T04:33:01;102565.34;;;5.52;100.00
42591;BME280;28218;53.342;-6.216;2022-12-07T04:35:29;102565.41;;;5.50;100.00
42591;BME280;28218;53.342;-6.216;2022-12-07T04:37:59;102567.28;;;5.48;100.00
42591;BME280;28218;53.342;-6.216;2022-12-07T04:40:27;102568.13;;;5.49;100.00
42591;BME280;28218;53.342;-6.216;2022-12-07T04:42:55;102569.81;;;5.50;100.00
42591;BME280;28218;53.342;-6.216;2022-12-07T04:45:23;102561.97;;;5.50;100.00
42591;BME280;28218;53.342;-6.216;2022-12-07T04:47:52;102569.75;;;5.51;100.00
42591;BME280;28218;53.342;-6.216;2022-12-07T04:50:20;102573.34;;;5.49;100.00
42591;BME280;28218;53.342;-6.216;2022-12-07T04:52:48;102574.28;;;5.48;100.00
42591;BME280;28218;53.342;-6.216;2022-12-07T04:55:18;102572.53;;;5.48;100.00
42591;BME280;28218;53.342;-6.216;2022-12-07T04:57:46;102561.38;;;5.45;100.00
42591;BME280;28218;53.342;-6.216;2022-12-07T05:00:14;102563.94;;;5.46;100.00
42591;BME280;28218;53.342;-6.216;2022-12-07T05:02:42;102567.38;;;5.47;100.00
42591;BME280;28218;53.342;-6.216;2022-12-07T05:05:10;102563.84;;;5.48;100.00
42591;BME280;28218;53.342;-6.216;2022-12-07T05:07:38;102557.00;;;5.45;100.00
42591;BME280;28218;53.342;-6.216;2022-12-07T05:10:08;102559.72;;;5.44;100.00
42591;BME280;28218;53.342;-6.216;2022-12-07T05:12:37;102567.47;;;5.45;100.00
42591;BME280;28218;53.342;-6.216;2022-12-07T05:15:06;102565.78;;;5.44;100.00
42591;BME280;28218;53.342;-6.216;2022-12-07T05:17:34;102570.16;;;5.44;100.00
42591;BME280;28218;53.342;-6.216;2022-12-07T05:20:02;102569.34;;;5.43;100.00
42591;BME280;28218;53.342;-6.216;2022-12-07T05:22:31;102571.13;;;5.43;100.00
42591;BME280;28218;53.342;-6.216;2022-12-07T05:25:01;102560.44;;;5.46;100.00
42591;BME280;28218;53.342;-6.216;2022-12-07T05:27:30;102566.63;;;5.45;100.00
42591;BME280;28218;53.342;-6.216;2022-12-07T05:29:59;102560.56;;;5.44;100.00
42591;BME280;28218;53.342;-6.216;2022-12-07T05:32:28;102566.63;;;5.45;100.00
42591;BME280;28218;53.342;-6.216;2022-12-07T05:34:56;102573.72;;;5.43;100.00
42591;BME280;28218;53.342;-6.216;2022-12-07T05:37:24;102564.94;;;5.44;100.00
42591;BME280;28218;53.342;-6.216;2022-12-07T05:39:52;102562.34;;;5.44;100.00
42591;BME280;28218;53.342;-6.216;2022-12-07T05:42:20;102568.50;;;5.43;100.00
42591;BME280;28218;53.342;-6.216;2022-12-07T05:44:49;102573.72;;;5.43;100.00
42591;BME280;28218;53.342;-6.216;2022-12-07T05:47:18;102568.66;;;5.39;100.00
42591;BME280;28218;53.342;-6.216;2022-12-07T05:49:47;102559.88;;;5.41;100.00
42591;BME280;28218;53.342;-6.216;2022-12-07T05:52:15;102559.97;;;5.39;100.00
42591;BME280;28218;53.342;-6.216;2022-12-07T05:54:43;102564.47;;;5.37;100.00
42591;BME280;28218;53.342;-6.216;2022-12-07T05:57:11;102557.38;;;5.39;100.00
42591;BME280;28218;53.342;-6.216;2022-12-07T05:59:39;102560.91;;;5.38;100.00
42591;BME280;28218;53.342;-6.216;2022-12-07T06:02:08;102567.09;;;5.37;100.00
42591;BME280;28218;53.342;-6.216;2022-12-07T06:04:40;102556.81;;;5.34;100.00
42591;BME280;28218;53.342;-6.216;2022-12-07T06:07:09;102555.13;;;5.33;100.00
42591;BME280;28218;53.342;-6.216;2022-12-07T06:09:38;102561.19;;;5.33;100.00
42591;BME280;28218;53.342;-6.216;2022-12-07T06:12:09;102552.78;;;5.28;100.00
42591;BME280;28218;53.342;-6.216;2022-12-07T06:14:55;102551.00;;;5.29;100.00
42591;BME280;28218;53.342;-6.216;2022-12-07T06:17:23;102550.16;;;5.28;100.00
42591;BME280;28218;53.342;-6.216;2022-12-07T06:19:53;102540.66;;;5.27;100.00
42591;BME280;28218;53.342;-6.216;2022-12-07T06:22:21;102546.59;;;5.29;100.00
42591;BME280;28218;53.342;-6.216;2022-12-07T06:24:49;102546.59;;;5.29;100.00
42591;BME280;28218;53.342;-6.216;2022-12-07T06:27:18;102541.38;;;5.29;100.00
42591;BME280;28218;53.342;-6.216;2022-12-07T06:29:46;102541.38;;;5.29;100.00
42591;BME280;28218;53.342;-6.216;2022-12-07T06:32:14;102541.38;;;5.29;100.00
42591;BME280;28218;53.342;-6.216;2022-12-07T06:34:42;102539.72;;;5.28;100.00
42591;BME280;28218;53.342;-6.216;2022-12-07T06:37:12;102541.38;;;5.29;100.00
42591;BME280;28218;53.342;-6.216;2022-12-07T06:39:40;102543.16;;;5.29;100.00
42591;BME280;28218;53.342;-6.216;2022-12-07T06:42:08;102538.88;;;5.28;100.00
42591;BME280;28218;53.342;-6.216;2022-12-07T06:44:36;102537.94;;;5.29;100.00
42591;BME280;28218;53.342;-6.216;2022-12-07T06:47:04;102532.97;;;5.24;100.00
42591;BME280;28218;53.342;-6.216;2022-12-07T06:49:54;102531.28;;;5.23;100.00
42591;BME280;28218;53.342;-6.216;2022-12-07T06:52:24;102537.53;;;5.21;100.00
42591;BME280;28218;53.342;-6.216;2022-12-07T06:54:52;102544.69;;;5.17;100.00
42591;BME280;28218;53.342;-6.216;2022-12-07T06:57:20;102544.88;;;5.14;100.00
42591;BME280;28218;53.342;-6.216;2022-12-07T06:59:49;102544.22;;;5.10;100.00
42591;BME280;28218;53.342;-6.216;2022-12-07T07:02:17;102542.44;;;5.11;100.00
42591;BME280;28218;53.342;-6.216;2022-12-07T07:04:46;102541.69;;;5.09;100.00
42591;BME280;28218;53.342;-6.216;2022-12-07T07:07:14;102537.47;;;5.06;100.00
42591;BME280;28218;53.342;-6.216;2022-12-07T07:09:43;102536.91;;;5.01;100.00
42591;BME280;28218;53.342;-6.216;2022-12-07T07:12:12;102540.44;;;5.00;100.00
42591;BME280;28218;53.342;-6.216;2022-12-07T07:14:40;102545.78;;;4.99;100.00
42591;BME280;28218;53.342;-6.216;2022-12-07T07:17:09;102538.78;;;4.99;100.00
42591;BME280;28218;53.342;-6.216;2022-12-07T07:19:38;102545.78;;;4.99;100.00
42591;BME280;28218;53.342;-6.216;2022-12-07T07:22:06;102529.16;;;5.00;100.00
42591;BME280;28218;53.342;-6.216;2022-12-07T07:24:34;102536.22;;;4.98;100.00
42591;BME280;28218;53.342;-6.216;2022-12-07T07:27:03;102544.25;;;4.95;100.00
42591;BME280;28218;53.342;-6.216;2022-12-07T07:29:32;102536.59;;;4.92;100.00
42591;BME280;28218;53.342;-6.216;2022-12-07T07:32:00;102535.91;;;4.88;100.00
42591;BME280;28218;53.342;-6.216;2022-12-07T07:34:32;102536.75;;;4.88;100.00
42591;BME280;28218;53.342;-6.216;2022-12-07T07:37:01;102536.00;;;4.86;100.00
42591;BME280;28218;53.342;-6.216;2022-12-07T07:39:29;102541.38;;;4.83;100.00
42591;BME280;28218;53.342;-6.216;2022-12-07T07:41:57;102545.97;;;4.80;100.00
42591;BME280;28218;53.342;-6.216;2022-12-07T07:44:27;102548.84;;;4.75;100.00
42591;BME280;28218;53.342;-6.216;2022-12-07T07:47:01;102548.16;;;4.72;100.00
42591;BME280;28218;53.342;-6.216;2022-12-07T07:49:29;102552.53;;;4.71;100.00
42591;BME280;28218;53.342;-6.216;2022-12-07T07:51:58;102551.88;;;4.68;100.00
42591;BME280;28218;53.342;-6.216;2022-12-07T07:54:26;102552.13;;;4.63;100.00
42591;BME280;28218;53.342;-6.216;2022-12-07T07:56:54;102548.66;;;4.63;100.00
42591;BME280;28218;53.342;-6.216;2022-12-07T07:59:22;102551.34;;;4.61;100.00
42591;BME280;28218;53.342;-6.216;2022-12-07T08:01:53;102553.22;;;4.59;100.00
42591;BME280;28218;53.342;-6.216;2022-12-07T08:04:21;102552.47;;;4.57;100.00
42591;BME280;28218;53.342;-6.216;2022-12-07T08:06:50;102558.44;;;4.59;100.00
42591;BME280;28218;53.342;-6.216;2022-12-07T08:09:18;102558.44;;;4.59;100.00
42591;BME280;28218;53.342;-6.216;2022-12-07T08:11:46;102555.97;;;4.56;100.00
42591;BME280;28218;53.342;-6.216;2022-12-07T08:14:14;102554.13;;;4.58;100.00
42591;BME280;28218;53.342;-6.216;2022-12-07T08:16:42;102566.41;;;4.56;100.00
42591;BME280;28218;53.342;-6.216;2022-12-07T08:19:12;102557.84;;;4.54;100.00
42591;BME280;28218;53.342;-6.216;2022-12-07T08:21:40;102558.00;;;4.51;100.00
42591;BME280;28218;53.342;-6.216;2022-12-07T08:24:08;102556.47;;;4.47;100.00
42591;BME280;28218;53.342;-6.216;2022-12-07T08:26:37;102560.84;;;4.46;100.00
42591;BME280;28218;53.342;-6.216;2022-12-07T08:29:05;102559.19;;;4.45;100.00
42591;BME280;28218;53.342;-6.216;2022-12-07T08:31:33;102557.75;;;4.40;100.00
42591;BME280;28218;53.342;-6.216;2022-12-07T08:34:01;102551.69;;;4.55;100.00
42591;BME280;28218;53.342;-6.216;2022-12-07T08:36:31;102549.16;;;4.53;100.00
42591;BME280;28218;53.342;-6.216;2022-12-07T08:38:59;102547.66;;;4.49;100.00
42591;BME280;28218;53.342;-6.216;2022-12-07T08:41:47;102558.34;;;4.45;100.00
42591;BME280;28218;53.342;-6.216;2022-12-07T08:44:15;102556.47;;;4.47;100.00
42591;BME280;28218;53.342;-6.216;2022-12-07T08:46:46;102556.66;;;4.44;100.00
42591;BME280;28218;53.342;-6.216;2022-12-07T08:49:20;102550.66;;;4.42;100.00
42591;BME280;28218;53.342;-6.216;2022-12-07T08:51:51;102552.09;;;4.31;100.00
42591;BME280;28218;53.342;-6.216;2022-12-07T08:54:19;102551.41;;;4.28;100.00
42591;BME280;28218;53.342;-6.216;2022-12-07T08:56:49;102556.72;;;4.26;100.00
42591;BME280;28218;53.342;-6.216;2022-12-07T08:59:25;102553.38;;;4.24;100.00
42591;BME280;28218;53.342;-6.216;2022-12-07T09:01:54;102561.19;;;4.24;100.00
42591;BME280;28218;53.342;-6.216;2022-12-07T09:04:22;102552.44;;;4.25;100.00
42591;BME280;28218;53.342;-6.216;2022-12-07T09:06:53;102558.50;;;4.26;100.00
42591;BME280;28218;53.342;-6.216;2022-12-07T09:09:22;102551.66;;;4.23;100.00
42591;BME280;28218;53.342;-6.216;2022-12-07T09:11:50;102553.44;;;4.23;100.00
42591;BME280;28218;53.342;-6.216;2022-12-07T09:14:18;102546.63;;;4.20;100.00
42591;BME280;28218;53.342;-6.216;2022-12-07T09:16:46;102550.91;;;4.21;100.00
42591;BME280;28218;53.342;-6.216;2022-12-07T09:19:14;102559.66;;;4.20;100.00
42591;BME280;28218;53.342;-6.216;2022-12-07T09:21:43;102557.06;;;4.20;100.00
42591;BME280;28218;53.342;-6.216;2022-12-07T09:24:12;102557.06;;;4.20;100.00
42591;BME280;28218;53.342;-6.216;2022-12-07T09:26:41;102551.84;;;4.20;100.00
42591;BME280;28218;53.342;-6.216;2022-12-07T09:29:09;102547.56;;;4.19;100.00
42591;BME280;28218;53.342;-6.216;2022-12-07T09:31:37;102547.63;;;4.18;100.00
42591;BME280;28218;53.342;-6.216;2022-12-07T09:34:05;102554.44;;;4.20;100.00
42591;BME280;28218;53.342;-6.216;2022-12-07T09:36:34;102549.22;;;4.20;100.00
42591;BME280;28218;53.342;-6.216;2022-12-07T09:39:03;102555.19;;;4.22;100.00
42591;BME280;28218;53.342;-6.216;2022-12-07T09:41:37;102554.34;;;4.22;100.00
42591;BME280;28218;53.342;-6.216;2022-12-07T09:44:09;102553.44;;;4.23;100.00
42591;BME280;28218;53.342;-6.216;2022-12-07T09:46:41;102553.44;;;4.23;100.00
42591;BME280;28218;53.342;-6.216;2022-12-07T09:49:12;102561.00;;;4.27;100.00
42591;BME280;28218;53.342;-6.216;2022-12-07T09:51:42;102557.50;;;4.28;100.00
42591;BME280;28218;53.342;-6.216;2022-12-07T09:54:13;102562.78;;;4.27;100.00
42591;BME280;28218;53.342;-6.216;2022-12-07T09:56:43;102559.34;;;4.26;100.00
42591;BME280;28218;53.342;-6.216;2022-12-07T09:59:15;102559.44;;;4.25;100.00
42591;BME280;28218;53.342;-6.216;2022-12-07T10:01:47;102555.78;;;4.27;100.00
42591;BME280;28218;53.342;-6.216;2022-12-07T10:04:16;102546.28;;;4.26;100.00
42591;BME280;28218;53.342;-6.216;2022-12-07T10:06:46;102549.81;;;4.25;100.00
42591;BME280;28218;53.342;-6.216;2022-12-07T10:09:16;102545.59;;;4.23;100.00
42591;BME280;28218;53.342;-6.216;2022-12-07T10:12:12;102553.53;;;4.21;100.00
42591;BME280;28218;53.342;-6.216;2022-12-07T10:14:53;102549.22;;;4.20;100.00
42591;BME280;28218;53.342;-6.216;2022-12-07T10:17:36;102549.00;;;4.25;100.00
42591;BME280;28218;53.342;-6.216;2022-12-07T10:20:16;102549.00;;;4.25;100.00
42591;BME280;28218;53.342;-6.216;2022-12-07T10:22:59;102546.88;;;4.31;100.00
42591;BME280;28218;53.342;-6.216;2022-12-07T10:25:30;102532.41;;;4.42;100.00
42591;BME280;28218;53.342;-6.216;2022-12-07T10:28:10;102528.69;;;4.46;100.00
42591;BME280;28218;53.342;-6.216;2022-12-07T10:30:52;102523.47;;;4.46;100.00
42591;BME280;28218;53.342;-6.216;2022-12-07T10:33:32;102527.59;;;4.50;100.00
42591;BME280;28218;53.342;-6.216;2022-12-07T10:36:16;102529.03;;;4.55;100.00
42591;BME280;28218;53.342;-6.216;2022-12-07T10:38:47;102519.94;;;4.63;100.00
42591;BME280;28218;53.342;-6.216;2022-12-07T10:41:16;102514.47;;;4.67;100.00
42591;BME280;28218;53.342;-6.216;2022-12-07T10:43:52;102506.28;;;4.73;100.00
42591;BME280;28218;53.342;-6.216;2022-12-07T10:52:56;102494.09;;;5.04;100.00
42591;BME280;28218;53.342;-6.216;2022-12-07T10:55:35;102496.34;;;5.10;100.00
42591;BME280;28218;53.342;-6.216;2022-12-07T10:58:18;102492.06;;;5.09;100.00
42591;BME280;28218;53.342;-6.216;2022-12-07T11:00:58;102484.53;;;5.19;100.00
42591;BME280;28218;53.342;-6.216;2022-12-07T11:03:50;102476.13;;;5.28;100.00
42591;BME280;28218;53.342;-6.216;2022-12-07T11:06:28;102475.59;;;5.37;100.00
42591;BME280;28218;53.342;-6.216;2022-12-07T11:09:06;102474.38;;;5.43;100.00
42591;BME280;28218;53.342;-6.216;2022-12-07T11:12:13;102481.56;;;5.53;100.00
42591;BME280;28218;53.342;-6.216;2022-12-07T11:14:50;102474.41;;;5.57;100.00
42591;BME280;28218;53.342;-6.216;2022-12-07T11:17:30;102474.78;;;5.65;100.00
42591;BME280;28218;53.342;-6.216;2022-12-07T11:20:06;102479.44;;;5.74;100.00
42591;BME280;28218;53.342;-6.216;2022-12-07T11:22:46;102469.63;;;5.78;100.00
42591;BME280;28218;53.342;-6.216;2022-12-07T11:25:24;102466.53;;;5.85;100.00
42591;BME280;28218;53.342;-6.216;2022-12-07T11:28:07;102468.03;;;5.89;100.00
42591;BME280;28218;53.342;-6.216;2022-12-07T11:30:44;102473.84;;;5.95;100.00
42591;BME280;28218;53.342;-6.216;2022-12-07T11:33:20;102472.91;;;5.96;100.00
42591;BME280;28218;53.342;-6.216;2022-12-07T11:35:57;102468.22;;;6.01;100.00
42591;BME280;28218;53.342;-6.216;2022-12-07T11:38:38;102469.91;;;6.02;100.00
42591;BME280;28218;53.342;-6.216;2022-12-07T11:41:10;102464.50;;;6.05;100.00
42591;BME280;28218;53.342;-6.216;2022-12-07T11:43:52;102458.97;;;6.09;100.00
42591;BME280;28218;53.342;-6.216;2022-12-07T11:46:25;102462.03;;;6.16;100.00
42591;BME280;28218;53.342;-6.216;2022-12-07T11:49:01;102454.81;;;6.20;100.00
42591;BME280;28218;53.342;-6.216;2022-12-07T11:51:33;102450.25;;;6.23;100.00
42591;BME280;28218;53.342;-6.216;2022-12-07T11:54:11;102447.91;;;6.19;100.00
42591;BME280;28218;53.342;-6.216;2022-12-07T11:56:41;102444.47;;;6.18;100.00
42591;BME280;28218;53.342;-6.216;2022-12-07T11:59:13;102438.94;;;6.23;100.00
42591;BME280;28218;53.342;-6.216;2022-12-07T12:01:53;102434.72;;;6.20;100.00
42591;BME280;28218;53.342;-6.216;2022-12-07T12:04:34;102427.63;;;6.22;100.00
42591;BME280;28218;53.342;-6.216;2022-12-07T12:07:11;102424.06;;;6.23;100.00
42591;BME280;28218;53.342;-6.216;2022-12-07T12:10:13;102419.56;;;6.25;100.00
42591;BME280;28218;53.342;-6.216;2022-12-07T12:13:10;102424.06;;;6.23;100.00
42591;BME280;28218;53.342;-6.216;2022-12-07T12:16:14;102420.50;;;6.24;100.00
42591;BME280;28218;53.342;-6.216;2022-12-07T12:18:58;102425.84;;;6.23;100.00
42591;BME280;28218;53.342;-6.216;2022-12-07T12:21:31;102423.78;;;6.28;100.00
42591;BME280;28218;53.342;-6.216;2022-12-07T12:24:02;102416.66;;;6.30;100.00
42591;BME280;28218;53.342;-6.216;2022-12-07T12:26:35;102423.47;;;6.32;100.00
42591;BME280;28218;53.342;-6.216;2022-12-07T12:29:05;102412.19;;;6.32;100.00
42591;BME280;28218;53.342;-6.216;2022-12-07T12:31:37;102417.59;;;6.29;100.00
42591;BME280;28218;53.342;-6.216;2022-12-07T12:34:32;102414.25;;;6.27;100.00
42591;BME280;28218;53.342;-6.216;2022-12-07T12:43:46;102394.56;;;6.21;100.00
42591;BME280;28218;53.342;-6.216;2022-12-07T12:46:50;102388.44;;;6.21;100.00
42591;BME280;28218;53.342;-6.216;2022-12-07T12:49:40;102387.06;;;6.15;100.00
42591;BME280;28218;53.342;-6.216;2022-12-07T12:58:40;102385.75;;;6.22;100.00
42591;BME280;28218;53.342;-6.216;2022-12-07T13:04:24;102379.47;;;6.25;100.00
42591;BME280;28218;53.342;-6.216;2022-12-07T13:06:53;102383.66;;;6.27;100.00
42591;BME280;28218;53.342;-6.216;2022-12-07T13:09:24;102378.63;;;6.24;100.00
42591;BME280;28218;53.342;-6.216;2022-12-07T13:12:02;102377.78;;;6.24;100.00
42591;BME280;28218;53.342;-6.216;2022-12-07T13:14:40;102376.00;;;6.24;100.00
42591;BME280;28218;53.342;-6.216;2022-12-07T13:17:09;102377.78;;;6.24;100.00
42591;BME280;28218;53.342;-6.216;2022-12-07T13:19:56;102377.78;;;6.24;100.00
42591;BME280;28218;53.342;-6.216;2022-12-07T13:22:50;102374.34;;;6.23;100.00
42591;BME280;28218;53.342;-6.216;2022-12-07T13:25:28;102377.59;;;6.27;100.00
42591;BME280;28218;53.342;-6.216;2022-12-07T13:28:02;102384.91;;;6.22;100.00
42591;BME280;28218;53.342;-6.216;2022-12-07T13:30:44;102382.38;;;6.20;100.00